Terminal Aerodrome Forecast
Issued by NWS

Home | Current Version | Previous Version | Text Only | Print | Product List | Glossary On
Versions: 1 2 3 4 5 6 7 8 9 10 11 12 13 14 15 16 17 18 19 20 21 22 23 24 25 26 27 28 29 30 31 32
000
FTUS41 KBOX 040540
TAFFMH
TAF
KFMH 040540Z 0406/0506 22010G17KT P6SM BKN008
     FM040900 22008KT 5SM BR BKN008
     FM041200 22009KT P6SM BKN080
     FM041700 22013G21KT P6SM BKN070
     FM050000 23009KT P6SM OVC070
     FM050400 24005KT P6SM BKN250=

USA.gov is the U.S. government's official web portal to all federal, state and local government web resources and services.